sensor_id;sensor_type;location;lat;lon;timestamp;pressure;altitude;pressure_sealevel;temperature;humidity
70521;BME280;58442;52.716;23.560;2023-03-31T00:01:11;100220.88;;;7.92;68.33
70521;BME280;58442;52.716;23.560;2023-03-31T00:03:22;100219.32;;;7.91;68.44
70521;BME280;58442;52.716;23.560;2023-03-31T00:05:25;100209.95;;;7.89;68.62
70521;BME280;58442;52.716;23.560;2023-03-31T00:07:26;100205.36;;;7.89;68.68
70521;BME280;58442;52.716;23.560;2023-03-31T00:09:27;100215.04;;;7.90;68.71
70521;BME280;58442;52.716;23.560;2023-03-31T00:11:38;100208.05;;;7.89;68.83
70521;BME280;58442;52.716;23.560;2023-03-31T00:13:39;100203.66;;;7.85;69.06
70521;BME280;58442;52.716;23.560;2023-03-31T00:15:41;100204.00;;;7.83;69.21
70521;BME280;58442;52.716;23.560;2023-03-31T00:17:42;100207.50;;;7.84;69.29
70521;BME280;58442;52.716;23.560;2023-03-31T00:19:52;100201.97;;;7.80;69.49
70521;BME280;58442;52.716;23.560;2023-03-31T00:21:58;100210.88;;;7.81;69.67
70521;BME280;58442;52.716;23.560;2023-03-31T00:24:05;100195.12;;;7.83;69.69
70521;BME280;58442;52.716;23.560;2023-03-31T00:26:07;100195.99;;;7.87;69.64
70521;BME280;58442;52.716;23.560;2023-03-31T00:28:09;100192.15;;;7.88;69.61
70521;BME280;58442;52.716;23.560;2023-03-31T00:30:12;100185.60;;;7.89;69.69
70521;BME280;58442;52.716;23.560;2023-03-31T00:32:13;100181.32;;;7.88;69.77
70521;BME280;58442;52.716;23.560;2023-03-31T00:34:15;100184.03;;;7.88;69.84
70521;BME280;58442;52.716;23.560;2023-03-31T00:36:24;100171.75;;;7.90;69.83
70521;BME280;58442;52.716;23.560;2023-03-31T00:38:29;100170.61;;;7.91;69.91
70521;BME280;58442;52.716;23.560;2023-03-31T00:40:30;100166.77;;;7.92;69.93
70521;BME280;58442;52.716;23.560;2023-03-31T00:42:32;100175.33;;;7.94;69.92
70521;BME280;58442;52.716;23.560;2023-03-31T00:47:15;100154.81;;;7.93;70.06
70521;BME280;58442;52.716;23.560;2023-03-31T00:49:28;100154.03;;;7.93;70.18
70521;BME280;58442;52.716;23.560;2023-03-31T00:51:33;100155.95;;;7.92;70.36
70521;BME280;58442;52.716;23.560;2023-03-31T00:53:36;100147.84;;;7.92;70.39
70521;BME280;58442;52.716;23.560;2023-03-31T00:55:43;100144.78;;;7.94;70.40
70521;BME280;58442;52.716;23.560;2023-03-31T00:57:46;100154.47;;;7.95;70.40
70521;BME280;58442;52.716;23.560;2023-03-31T00:59:52;100153.36;;;7.96;70.47
70521;BME280;58442;52.716;23.560;2023-03-31T01:01:58;100147.48;;;7.94;70.58
70521;BME280;58442;52.716;23.560;2023-03-31T01:04:03;100150.20;;;7.94;70.66
70521;BME280;58442;52.716;23.560;2023-03-31T01:06:09;100142.08;;;7.94;70.67
70521;BME280;58442;52.716;23.560;2023-03-31T01:08:12;100133.96;;;7.94;70.78
70521;BME280;58442;52.716;23.560;2023-03-31T01:10:15;100139.83;;;7.96;70.79
70521;BME280;58442;52.716;23.560;2023-03-31T01:12:17;100136.66;;;7.94;70.84
70521;BME280;58442;52.716;23.560;2023-03-31T01:14:20;100136.66;;;7.94;70.94
70521;BME280;58442;52.716;23.560;2023-03-31T01:16:22;100139.37;;;7.94;71.09
70521;BME280;58442;52.716;23.560;2023-03-31T01:18:23;100132.51;;;7.97;71.06
70521;BME280;58442;52.716;23.560;2023-03-31T01:20:37;100122.90;;;7.99;70.98
70521;BME280;58442;52.716;23.560;2023-03-31T01:41:33;100103.16;;;7.99;71.67
70521;BME280;58442;52.716;23.560;2023-03-31T01:51:01;100089.72;;;8.02;71.88
70521;BME280;58442;52.716;23.560;2023-03-31T01:58:06;100075.87;;;8.04;72.05
70521;BME280;58442;52.716;23.560;2023-03-31T02:02:35;100084.31;;;8.02;72.33
70521;BME280;58442;52.716;23.560;2023-03-31T02:04:51;100075.09;;;8.03;72.37
70521;BME280;58442;52.716;23.560;2023-03-31T02:06:56;100069.99;;;8.02;72.51
70521;BME280;58442;52.716;23.560;2023-03-31T02:09:03;100075.87;;;8.04;72.54
70521;BME280;58442;52.716;23.560;2023-03-31T02:11:06;100068.61;;;8.08;72.47
70521;BME280;58442;52.716;23.560;2023-03-31T02:13:08;100067.15;;;8.10;72.44
70521;BME280;58442;52.716;23.560;2023-03-31T02:15:17;100068.38;;;8.13;72.44
70521;BME280;58442;52.716;23.560;2023-03-31T02:17:22;100059.89;;;8.14;72.47
70521;BME280;58442;52.716;23.560;2023-03-31T02:19:37;100064.52;;;8.14;72.57
70521;BME280;58442;52.716;23.560;2023-03-31T02:21:40;100058.76;;;8.15;72.60
70521;BME280;58442;52.716;23.560;2023-03-31T02:23:43;100063.04;;;8.16;72.72
70521;BME280;58442;52.716;23.560;2023-03-31T02:25:52;100057.63;;;8.16;72.79
70521;BME280;58442;52.716;23.560;2023-03-31T02:27:59;100055.37;;;8.18;72.76
70521;BME280;58442;52.716;23.560;2023-03-31T02:30:03;100058.51;;;8.20;72.74
70521;BME280;58442;52.716;23.560;2023-03-31T02:32:14;100050.82;;;8.22;72.74
70521;BME280;58442;52.716;23.560;2023-03-31T02:34:18;100048.90;;;8.23;72.74
70521;BME280;58442;52.716;23.560;2023-03-31T02:36:22;100045.86;;;8.25;72.69
70521;BME280;58442;52.716;23.560;2023-03-31T02:38:24;100035.46;;;8.27;72.66
70521;BME280;58442;52.716;23.560;2023-03-31T02:40:25;100042.01;;;8.26;72.75
70521;BME280;58442;52.716;23.560;2023-03-31T02:42:28;100041.59;;;8.23;72.84
70521;BME280;58442;52.716;23.560;2023-03-31T02:44:29;100030.41;;;8.25;72.87
70521;BME280;58442;52.716;23.560;2023-03-31T02:46:38;100023.07;;;8.26;72.87
70521;BME280;58442;52.716;23.560;2023-03-31T02:48:46;100025.85;;;8.29;72.84
70521;BME280;58442;52.716;23.560;2023-03-31T02:57:43;100013.81;;;8.27;73.04
70521;BME280;58442;52.716;23.560;2023-03-31T03:02:11;100014.70;;;8.31;73.02
70521;BME280;58442;52.716;23.560;2023-03-31T03:09:07;100015.11;;;8.33;73.10
70521;BME280;58442;52.716;23.560;2023-03-31T03:11:38;100020.18;;;8.34;73.14
70521;BME280;58442;52.716;23.560;2023-03-31T03:16:12;100027.88;;;8.32;73.22
70521;BME280;58442;52.716;23.560;2023-03-31T03:18:26;100025.16;;;8.32;73.39
70521;BME280;58442;52.716;23.560;2023-03-31T03:20:28;100023.24;;;8.33;73.49
70521;BME280;58442;52.716;23.560;2023-03-31T03:22:29;100023.24;;;8.33;73.51
70521;BME280;58442;52.716;23.560;2023-03-31T03:24:30;100025.27;;;8.36;73.47
70521;BME280;58442;52.716;23.560;2023-03-31T03:26:41;100026.83;;;8.37;73.49
70521;BME280;58442;52.716;23.560;2023-03-31T03:28:44;100020.30;;;8.38;73.57
70521;BME280;58442;52.716;23.560;2023-03-31T03:30:45;100023.80;;;8.38;73.60
70521;BME280;58442;52.716;23.560;2023-03-31T03:32:47;100010.27;;;8.38;73.63
70521;BME280;58442;52.716;23.560;2023-03-31T03:34:56;100016.53;;;8.42;73.60
70521;BME280;58442;52.716;23.560;2023-03-31T03:36:57;100015.07;;;8.45;73.59
70521;BME280;58442;52.716;23.560;2023-03-31T03:38:59;100018.98;;;8.47;73.55
70521;BME280;58442;52.716;23.560;2023-03-31T03:41:00;100020.55;;;8.48;73.59
70521;BME280;58442;52.716;23.560;2023-03-31T03:43:11;100022.91;;;8.50;73.51
70521;BME280;58442;52.716;23.560;2023-03-31T03:45:12;100015.13;;;8.48;73.62
70521;BME280;58442;52.716;23.560;2023-03-31T03:47:14;100026.08;;;8.52;73.65
70521;BME280;58442;52.716;23.560;2023-03-31T03:49:16;100020.66;;;8.52;73.61
70521;BME280;58442;52.716;23.560;2023-03-31T03:51:26;100023.79;;;8.54;73.63
70521;BME280;58442;52.716;23.560;2023-03-31T03:53:27;100021.08;;;8.54;73.71
70521;BME280;58442;52.716;23.560;2023-03-31T03:55:29;100023.79;;;8.54;73.74
70521;BME280;58442;52.716;23.560;2023-03-31T03:57:30;100027.27;;;8.55;73.80
70521;BME280;58442;52.716;23.560;2023-03-31T03:59:41;100025.79;;;8.57;73.84
70521;BME280;58442;52.716;23.560;2023-03-31T04:01:42;100023.53;;;8.59;73.90
70521;BME280;58442;52.716;23.560;2023-03-31T04:03:44;100023.16;;;8.61;73.87
70521;BME280;58442;52.716;23.560;2023-03-31T04:05:46;100025.95;;;8.64;73.84
70521;BME280;58442;52.716;23.560;2023-03-31T04:07:56;100020.99;;;8.66;73.84
70521;BME280;58442;52.716;23.560;2023-03-31T04:09:57;100026.83;;;8.68;73.92
70521;BME280;58442;52.716;23.560;2023-03-31T04:11:59;100018.34;;;8.70;73.98
70521;BME280;58442;52.716;23.560;2023-03-31T04:14:01;100019.57;;;8.72;73.99
70521;BME280;58442;52.716;23.560;2023-03-31T04:16:11;100014.23;;;8.76;73.98
70521;BME280;58442;52.716;23.560;2023-03-31T04:18:12;100018.18;;;8.79;74.01
70521;BME280;58442;52.716;23.560;2023-03-31T04:20:23;100008.55;;;8.81;74.00
70521;BME280;58442;52.716;23.560;2023-03-31T04:22:31;100020.59;;;8.84;74.02
70521;BME280;58442;52.716;23.560;2023-03-31T04:24:40;100019.45;;;8.85;74.02
70521;BME280;58442;52.716;23.560;2023-03-31T04:26:48;100016.05;;;8.88;74.04
70521;BME280;58442;52.716;23.560;2023-03-31T04:28:50;100013.77;;;8.90;74.12
70521;BME280;58442;52.716;23.560;2023-03-31T04:30:52;100018.82;;;8.91;74.14
70521;BME280;58442;52.716;23.560;2023-03-31T04:33:00;100013.07;;;8.93;74.14
70521;BME280;58442;52.716;23.560;2023-03-31T04:35:04;100015.07;;;8.96;74.13
70521;BME280;58442;52.716;23.560;2023-03-31T04:37:06;100023.20;;;8.96;73.68
70521;BME280;58442;52.716;23.560;2023-03-31T04:39:10;100008.50;;;8.97;74.33
70521;BME280;58442;52.716;23.560;2023-03-31T04:41:13;100011.64;;;8.99;74.37
70521;BME280;58442;52.716;23.560;2023-03-31T04:43:20;100017.51;;;9.01;74.44
70521;BME280;58442;52.716;23.560;2023-03-31T04:45:21;100010.59;;;9.03;74.57
70521;BME280;58442;52.716;23.560;2023-03-31T04:47:23;100010.23;;;9.05;74.60
70521;BME280;58442;52.716;23.560;2023-03-31T04:49:24;100011.88;;;9.10;74.61
70521;BME280;58442;52.716;23.560;2023-03-31T04:51:33;100008.81;;;9.11;74.65
70521;BME280;58442;52.716;23.560;2023-03-31T04:53:35;100007.33;;;9.14;74.78
70521;BME280;58442;52.716;23.560;2023-03-31T04:55:36;100010.88;;;9.18;74.82
70521;BME280;58442;52.716;23.560;2023-03-31T04:57:38;100002.84;;;9.21;74.81
70521;BME280;58442;52.716;23.560;2023-03-31T04:59:48;100007.55;;;9.24;74.86
70521;BME280;58442;52.716;23.560;2023-03-31T05:01:50;100005.27;;;9.26;74.95
70521;BME280;58442;52.716;23.560;2023-03-31T05:03:51;100008.41;;;9.28;75.02
70521;BME280;58442;52.716;23.560;2023-03-31T05:05:53;100001.48;;;9.31;75.02
70521;BME280;58442;52.716;23.560;2023-03-31T05:08:04;100003.83;;;9.32;75.12
70521;BME280;58442;52.716;23.560;2023-03-31T05:10:06;100001.56;;;9.35;75.21
70521;BME280;58442;52.716;23.560;2023-03-31T05:12:07;99998.13;;;9.38;75.22
70521;BME280;58442;52.716;23.560;2023-03-31T05:14:09;99992.78;;;9.41;75.18
70521;BME280;58442;52.716;23.560;2023-03-31T05:16:18;99987.78;;;9.43;75.22
70521;BME280;58442;52.716;23.560;2023-03-31T05:18:20;99992.48;;;9.46;75.33
70521;BME280;58442;52.716;23.560;2023-03-31T05:20:21;99987.84;;;9.47;75.38
70521;BME280;58442;52.716;23.560;2023-03-31T05:22:23;99984.01;;;9.48;75.36
70521;BME280;58442;52.716;23.560;2023-03-31T05:24:33;99982.13;;;9.52;75.40
70521;BME280;58442;52.716;23.560;2023-03-31T05:26:35;99989.57;;;9.55;75.44
70521;BME280;58442;52.716;23.560;2023-03-31T05:28:36;99985.70;;;9.56;75.48
70521;BME280;58442;52.716;23.560;2023-03-31T05:30:38;99983.36;;;9.54;75.54
70521;BME280;58442;52.716;23.560;2023-03-31T05:32:48;99984.92;;;9.55;75.66
70521;BME280;58442;52.716;23.560;2023-03-31T05:34:49;99987.27;;;9.57;75.76
70521;BME280;58442;52.716;23.560;2023-03-31T05:36:52;99977.98;;;9.58;75.78
70521;BME280;58442;52.716;23.560;2023-03-31T05:38:54;99990.40;;;9.59;75.80
70521;BME280;58442;52.716;23.560;2023-03-31T05:41:03;99991.96;;;9.60;75.85
70521;BME280;58442;52.716;23.560;2023-03-31T05:43:04;99984.28;;;9.62;75.90
70521;BME280;58442;52.716;23.560;2023-03-31T05:45:06;99981.98;;;9.64;75.85
70521;BME280;58442;52.716;23.560;2023-03-31T05:47:08;99987.04;;;9.66;75.89
70521;BME280;58442;52.716;23.560;2023-03-31T05:49:18;99981.24;;;9.67;75.93
70521;BME280;58442;52.716;23.560;2023-03-31T05:51:19;99987.13;;;9.69;75.99
70521;BME280;58442;52.716;23.560;2023-03-31T05:53:21;99985.97;;;9.70;76.01
70521;BME280;58442;52.716;23.560;2023-03-31T05:55:22;99987.17;;;9.73;76.00
70521;BME280;58442;52.716;23.560;2023-03-31T05:57:33;99992.59;;;9.73;76.08
70521;BME280;58442;52.716;23.560;2023-03-31T05:59:34;99993.04;;;9.75;76.17
70521;BME280;58442;52.716;23.560;2023-03-31T06:01:36;99989.97;;;9.76;76.17
70521;BME280;58442;52.716;23.560;2023-03-31T06:03:39;99993.88;;;9.79;76.17
70521;BME280;58442;52.716;23.560;2023-03-31T06:08:19;99995.16;;;9.85;76.21
70521;BME280;58442;52.716;23.560;2023-03-31T06:10:30;99991.71;;;9.88;76.25
70521;BME280;58442;52.716;23.560;2023-03-31T06:12:32;99992.56;;;9.92;76.30
70521;BME280;58442;52.716;23.560;2023-03-31T06:14:33;99996.14;;;9.96;76.27
70521;BME280;58442;52.716;23.560;2023-03-31T06:16:35;99998.90;;;10.00;76.24
70521;BME280;58442;52.716;23.560;2023-03-31T06:18:45;99994.70;;;10.02;76.23
70521;BME280;58442;52.716;23.560;2023-03-31T06:20:47;100010.33;;;10.09;76.25
70521;BME280;58442;52.716;23.560;2023-03-31T06:22:48;99994.87;;;10.13;76.26
70521;BME280;58442;52.716;23.560;2023-03-31T06:24:49;100005.02;;;10.16;76.24
70521;BME280;58442;52.716;23.560;2023-03-31T06:27:00;100001.20;;;10.21;76.26
70521;BME280;58442;52.716;23.560;2023-03-31T06:29:03;100001.30;;;10.24;76.28
70521;BME280;58442;52.716;23.560;2023-03-31T06:31:10;99997.84;;;10.27;76.29
70521;BME280;58442;52.716;23.560;2023-03-31T06:33:15;100004.13;;;10.31;76.25
70521;BME280;58442;52.716;23.560;2023-03-31T06:35:17;100004.96;;;10.35;76.17
70521;BME280;58442;52.716;23.560;2023-03-31T06:37:18;100012.44;;;10.42;76.17
70521;BME280;58442;52.716;23.560;2023-03-31T06:39:20;100003.20;;;10.47;76.11
70521;BME280;58442;52.716;23.560;2023-03-31T06:41:21;100006.78;;;10.51;76.07
70521;BME280;58442;52.716;23.560;2023-03-31T06:43:30;100006.03;;;10.54;76.08
70521;BME280;58442;52.716;23.560;2023-03-31T06:45:31;100005.31;;;10.57;76.08
70521;BME280;58442;52.716;23.560;2023-03-31T06:47:32;100008.45;;;10.59;76.02
70521;BME280;58442;52.716;23.560;2023-03-31T06:49:34;100008.45;;;10.59;75.97
70521;BME280;58442;52.716;23.560;2023-03-31T06:51:45;100011.54;;;10.57;75.97
70521;BME280;58442;52.716;23.560;2023-03-31T06:53:46;100017.75;;;10.58;76.00
70521;BME280;58442;52.716;23.560;2023-03-31T06:55:47;100022.81;;;10.59;76.01
70521;BME280;58442;52.716;23.560;2023-03-31T06:57:49;100024.01;;;10.62;75.93
70521;BME280;58442;52.716;23.560;2023-03-31T06:59:59;100022.97;;;10.70;75.89
70521;BME280;58442;52.716;23.560;2023-03-31T07:02:01;100025.48;;;10.82;75.84
70521;BME280;58442;52.716;23.560;2023-03-31T07:04:02;100023.34;;;10.95;75.67
70521;BME280;58442;52.716;23.560;2023-03-31T07:06:05;100019.63;;;11.07;75.51
70521;BME280;58442;52.716;23.560;2023-03-31T07:08:14;100010.09;;;11.20;75.39
70521;BME280;58442;52.716;23.560;2023-03-31T07:10:17;100017.21;;;11.32;75.27
70521;BME280;58442;52.716;23.560;2023-03-31T07:12:19;100013.48;;;11.43;75.13
70521;BME280;58442;52.716;23.560;2023-03-31T07:14:20;100016.69;;;11.53;74.94
70521;BME280;58442;52.716;23.560;2023-03-31T07:16:29;100006.70;;;11.60;74.72
70521;BME280;58442;52.716;23.560;2023-03-31T07:18:31;100013.78;;;11.68;74.58
70521;BME280;58442;52.716;23.560;2023-03-31T07:20:34;100016.58;;;11.75;74.45
70521;BME280;58442;52.716;23.560;2023-03-31T07:22:38;100015.11;;;11.82;74.25
70521;BME280;58442;52.716;23.560;2023-03-31T07:24:44;100022.60;;;11.92;74.09
70521;BME280;58442;52.716;23.560;2023-03-31T07:26:46;100031.28;;;12.01;73.94
70521;BME280;58442;52.716;23.560;2023-03-31T07:28:47;100037.14;;;12.07;73.79
70521;BME280;58442;52.716;23.560;2023-03-31T07:30:48;100029.73;;;12.03;73.66
70521;BME280;58442;52.716;23.560;2023-03-31T07:33:00;100029.34;;;12.01;73.61
70521;BME280;58442;52.716;23.560;2023-03-31T07:35:01;100035.20;;;12.07;73.55
70521;BME280;58442;52.716;23.560;2023-03-31T07:37:02;100039.52;;;12.08;73.51
70521;BME280;58442;52.716;23.560;2023-03-31T07:39:05;100039.52;;;12.08;73.32
70521;BME280;58442;52.716;23.560;2023-03-31T07:41:16;100045.36;;;12.10;73.16
70521;BME280;58442;52.716;23.560;2023-03-31T07:43:18;100041.42;;;12.08;73.01
70521;BME280;58442;52.716;23.560;2023-03-31T07:45:21;100037.97;;;12.11;72.98
70521;BME280;58442;52.716;23.560;2023-03-31T07:47:23;100026.74;;;12.16;72.74
70521;BME280;58442;52.716;23.560;2023-03-31T07:49:29;100038.06;;;12.21;72.64
70521;BME280;58442;52.716;23.560;2023-03-31T07:51:30;100029.53;;;12.23;72.48
70521;BME280;58442;52.716;23.560;2023-03-31T07:53:32;100031.42;;;12.19;72.47
70521;BME280;58442;52.716;23.560;2023-03-31T07:55:34;100025.96;;;12.15;72.46
70521;BME280;58442;52.716;23.560;2023-03-31T07:57:44;100020.86;;;12.14;72.37
70521;BME280;58442;52.716;23.560;2023-03-31T07:59:47;100018.53;;;12.12;72.36
70521;BME280;58442;52.716;23.560;2023-03-31T08:01:48;100013.86;;;12.13;72.33
70521;BME280;58442;52.716;23.560;2023-03-31T08:03:50;100016.58;;;12.13;72.29
70521;BME280;58442;52.716;23.560;2023-03-31T08:05:58;100017.34;;;12.10;72.20
70521;BME280;58442;52.716;23.560;2023-03-31T08:08:00;100017.67;;;12.04;72.27
70521;BME280;58442;52.716;23.560;2023-03-31T08:10:04;100015.73;;;12.05;72.23
70521;BME280;58442;52.716;23.560;2023-03-31T08:12:06;100014.63;;;12.10;72.17
70521;BME280;58442;52.716;23.560;2023-03-31T08:14:13;100021.36;;;12.23;72.02
70521;BME280;58442;52.716;23.560;2023-03-31T08:16:15;100018.32;;;12.35;71.87
70521;BME280;58442;52.716;23.560;2023-03-31T08:18:16;100021.55;;;12.48;71.80
70521;BME280;58442;52.716;23.560;2023-03-31T08:20:18;100011.91;;;12.57;71.62
70521;BME280;58442;52.716;23.560;2023-03-31T08:22:28;100009.23;;;12.65;71.43
70521;BME280;58442;52.716;23.560;2023-03-31T08:24:29;100004.21;;;12.70;71.26
70521;BME280;58442;52.716;23.560;2023-03-31T08:26:30;100007.34;;;12.76;71.17
70521;BME280;58442;52.716;23.560;2023-03-31T08:28:34;100003.88;;;12.82;70.97
70521;BME280;58442;52.716;23.560;2023-03-31T08:30:43;100010.14;;;12.86;70.95
70521;BME280;58442;52.716;23.560;2023-03-31T08:32:44;100010.16;;;12.90;70.86
70521;BME280;58442;52.716;23.560;2023-03-31T08:34:46;100010.20;;;12.94;70.74
70521;BME280;58442;52.716;23.560;2023-03-31T08:36:47;100007.46;;;12.94;70.70
70521;BME280;58442;52.716;23.560;2023-03-31T08:38:58;100000.84;;;12.95;70.69
70521;BME280;58442;52.716;23.560;2023-03-31T08:41:00;100009.41;;;12.97;70.63
70521;BME280;58442;52.716;23.560;2023-03-31T08:43:11;100006.34;;;13.02;70.57
70521;BME280;58442;52.716;23.560;2023-03-31T08:45:25;100010.65;;;13.06;70.43
70521;BME280;58442;52.716;23.560;2023-03-31T08:47:30;100007.58;;;13.11;70.26
70521;BME280;58442;52.716;23.560;2023-03-31T08:49:42;100004.85;;;13.15;70.13
70521;BME280;58442;52.716;23.560;2023-03-31T08:51:58;100010.06;;;13.41;69.73
70521;BME280;58442;52.716;23.560;2023-03-31T08:54:06;100003.49;;;13.53;69.57
70521;BME280;58442;52.716;23.560;2023-03-31T08:56:16;100007.00;;;13.57;69.48
70521;BME280;58442;52.716;23.560;2023-03-31T09:00:44;99998.08;;;13.67;69.04
70521;BME280;58442;52.716;23.560;2023-03-31T09:07:32;99992.29;;;14.26;68.08
70521;BME280;58442;52.716;23.560;2023-03-31T09:12:09;100002.83;;;14.13;67.87
70521;BME280;58442;52.716;23.560;2023-03-31T09:14:20;99996.95;;;13.97;67.96
70521;BME280;58442;52.716;23.560;2023-03-31T09:18:38;99991.48;;;13.90;67.98
70521;BME280;58442;52.716;23.560;2023-03-31T09:20:47;99994.99;;;13.90;67.95
70521;BME280;58442;52.716;23.560;2023-03-31T09:22:55;99991.48;;;13.90;67.88
70521;BME280;58442;52.716;23.560;2023-03-31T09:25:01;99982.91;;;13.95;67.71
70521;BME280;58442;52.716;23.560;2023-03-31T09:27:06;99986.04;;;14.04;67.57
70521;BME280;58442;52.716;23.560;2023-03-31T09:29:18;99991.13;;;14.09;67.47
70521;BME280;58442;52.716;23.560;2023-03-31T09:31:21;99980.96;;;14.13;67.09
70521;BME280;58442;52.716;23.560;2023-03-31T09:33:30;99974.73;;;14.16;67.15
70521;BME280;58442;52.716;23.560;2023-03-31T09:35:32;99979.41;;;14.19;67.05
70521;BME280;58442;52.716;23.560;2023-03-31T09:37:34;99980.18;;;14.20;66.98
70521;BME280;58442;52.716;23.560;2023-03-31T09:39:36;99980.99;;;14.28;66.81
70521;BME280;58442;52.716;23.560;2023-03-31T09:41:47;99978.23;;;14.31;66.64
70521;BME280;58442;52.716;23.560;2023-03-31T09:43:49;99979.81;;;14.36;66.50
70521;BME280;58442;52.716;23.560;2023-03-31T09:45:52;99980.99;;;14.35;66.52
70521;BME280;58442;52.716;23.560;2023-03-31T09:47:57;99980.58;;;14.26;66.48
70521;BME280;58442;52.716;23.560;2023-03-31T09:49:59;99972.38;;;14.18;66.53
70521;BME280;58442;52.716;23.560;2023-03-31T09:54:23;99961.45;;;14.33;66.29
70521;BME280;58442;52.716;23.560;2023-03-31T09:58:45;99970.04;;;14.60;65.67
70521;BME280;58442;52.716;23.560;2023-03-31T10:00:55;99963.77;;;14.77;65.35
70521;BME280;58442;52.716;23.560;2023-03-31T10:03:03;99961.75;;;14.95;65.10
70521;BME280;58442;52.716;23.560;2023-03-31T10:07:22;99954.17;;;15.35;64.46
70521;BME280;58442;52.716;23.560;2023-03-31T10:09:29;99956.43;;;15.54;64.11
70521;BME280;58442;52.716;23.560;2023-03-31T10:11:32;99951.71;;;15.62;63.86
70521;BME280;58442;52.716;23.560;2023-03-31T10:13:43;99962.67;;;15.62;63.58
70521;BME280;58442;52.716;23.560;2023-03-31T10:15:45;99959.14;;;15.62;63.41
70521;BME280;58442;52.716;23.560;2023-03-31T10:17:47;99956.41;;;15.62;63.30
70521;BME280;58442;52.716;23.560;2023-03-31T10:19:52;99954.09;;;15.53;63.34
70521;BME280;58442;52.716;23.560;2023-03-31T10:21:59;99958.05;;;15.45;63.25
70521;BME280;58442;52.716;23.560;2023-03-31T10:24:09;99949.06;;;15.37;63.30
70521;BME280;58442;52.716;23.560;2023-03-31T10:26:15;99954.20;;;15.31;63.29
70521;BME280;58442;52.716;23.560;2023-03-31T10:28:19;99959.68;;;15.28;63.35
70521;BME280;58442;52.716;23.560;2023-03-31T10:30:33;99955.38;;;15.23;63.43
70521;BME280;58442;52.716;23.560;2023-03-31T10:32:40;99955.02;;;15.21;63.36
70521;BME280;58442;52.716;23.560;2023-03-31T10:34:43;99949.16;;;15.19;63.37
70521;BME280;58442;52.716;23.560;2023-03-31T10:36:50;99955.82;;;15.18;63.37
70521;BME280;58442;52.716;23.560;2023-03-31T10:38:53;99954.27;;;15.17;63.34
70521;BME280;58442;52.716;23.560;2023-03-31T10:40:57;99951.91;;;15.16;63.13
70521;BME280;58442;52.716;23.560;2023-03-31T10:43:13;99946.42;;;15.16;63.14
70521;BME280;58442;52.716;23.560;2023-03-31T10:47:23;99954.64;;;15.19;63.06
70521;BME280;58442;52.716;23.560;2023-03-31T10:49:26;99951.13;;;15.19;63.00
70521;BME280;58442;52.716;23.560;2023-03-31T10:51:28;99945.65;;;15.19;62.83
70521;BME280;58442;52.716;23.560;2023-03-31T10:57:59;99949.63;;;15.00;62.99
70521;BME280;58442;52.716;23.560;2023-03-31T11:00:12;99946.53;;;14.91;63.05
70521;BME280;58442;52.716;23.560;2023-03-31T11:09:37;99941.17;;;14.48;63.71
70521;BME280;58442;52.716;23.560;2023-03-31T11:11:55;99930.23;;;14.48;63.67
70521;BME280;58442;52.716;23.560;2023-03-31T11:15:01;99938.44;;;14.48;63.60
70521;BME280;58442;52.716;23.560;2023-03-31T11:19:03;99927.07;;;14.60;63.55
70521;BME280;58442;52.716;23.560;2023-03-31T11:23:41;99925.77;;;15.00;63.18
70521;BME280;58442;52.716;23.560;2023-03-31T11:34:48;99922.75;;;15.65;62.12
70521;BME280;58442;52.716;23.560;2023-03-31T11:41:33;99909.91;;;16.06;61.16
70521;BME280;58442;52.716;23.560;2023-03-31T11:43:42;99909.51;;;16.08;61.08
70521;BME280;58442;52.716;23.560;2023-03-31T11:45:55;99903.30;;;16.00;60.91
70521;BME280;58442;52.716;23.560;2023-03-31T11:48:02;99895.93;;;15.90;60.82
70521;BME280;58442;52.716;23.560;2023-03-31T11:50:11;99898.36;;;15.81;60.85
70521;BME280;58442;52.716;23.560;2023-03-31T11:52:17;99905.45;;;15.75;60.93
70521;BME280;58442;52.716;23.560;2023-03-31T11:54:27;99897.24;;;15.71;60.81
70521;BME280;58442;52.716;23.560;2023-03-31T11:56:35;99898.42;;;15.70;60.79
70521;BME280;58442;52.716;23.560;2023-03-31T11:58:46;99891.44;;;15.66;60.65
70521;BME280;58442;52.716;23.560;2023-03-31T12:00:55;99896.14;;;15.62;60.74
70521;BME280;58442;52.716;23.560;2023-03-31T12:05:20;99878.11;;;15.64;60.66
70521;BME280;58442;52.716;23.560;2023-03-31T12:07:31;99874.54;;;15.71;60.57
70521;BME280;58442;52.716;23.560;2023-03-31T12:16:28;99872.83;;;15.91;59.85
70521;BME280;58442;52.716;23.560;2023-03-31T12:18:36;99873.15;;;16.00;59.72
70521;BME280;58442;52.716;23.560;2023-03-31T12:20:51;99866.83;;;16.07;59.62
70521;BME280;58442;52.716;23.560;2023-03-31T12:22:55;99858.97;;;16.09;59.45
70521;BME280;58442;52.716;23.560;2023-03-31T12:24:58;99864.41;;;16.12;59.41
70521;BME280;58442;52.716;23.560;2023-03-31T12:29:22;99856.60;;;16.11;59.29
70521;BME280;58442;52.716;23.560;2023-03-31T12:31:26;99849.57;;;16.10;59.16
70521;BME280;58442;52.716;23.560;2023-03-31T12:33:32;99849.20;;;16.08;59.04
70521;BME280;58442;52.716;23.560;2023-03-31T12:40:10;99836.95;;;16.20;58.67
70521;BME280;58442;52.716;23.560;2023-03-31T12:51:41;99831.63;;;16.02;58.69
70521;BME280;58442;52.716;23.560;2023-03-31T12:53:59;99832.06;;;15.97;58.64
70521;BME280;58442;52.716;23.560;2023-03-31T12:56:08;99828.54;;;15.96;58.67
70521;BME280;58442;52.716;23.560;2023-03-31T13:00:31;99822.58;;;16.05;58.63
70521;BME280;58442;52.716;23.560;2023-03-31T13:02:32;99823.70;;;16.11;58.49
70521;BME280;58442;52.716;23.560;2023-03-31T13:04:36;99818.97;;;16.15;58.35
70521;BME280;58442;52.716;23.560;2023-03-31T13:08:54;99808.02;;;16.11;58.16